x

Tanner Bank - 121nm West Of San Diego, Ca (46047) Wave Buoy

9:50 - Mon 22nd Sep 2014 All times are PDT. -7 hours from GMT.

  • Sig Wave height 5.6ft
  • Swell Direction
  • Peak Period 11s
  • Average Period 6s
  • Wind
    18mph, 20mph gusts
  • Sea Temp 70°f
  • Luft Temp 67°f
  • Sea Pressure 1014.5mb
  • Tanner Bank - 121nm West Of San Diego, Ca
  • Tanner Bank - 121nm West Of San Diego, Ca

More Historic Weather Station data

Upgrade to MSW Pro to gain access to the past 30 days of data for over 8000 Wavebouys and Weather Stations around the globe.

Join Pro

Comparision Forecast

View Surf forecast
   
Mo 09/22 9:50 5.5ft 11s 6s 18 20 mph 1014.5mb 70f 67f
8:50  -   -   -  20 22 mph 1014mb 70f 68f
7:50 5.5ft 12s 6s 18 22 mph 1013.8mb 70f 67f
6:50 5.5ft 11s 6s 20 22 mph 1013.6mb 71f 67f
5:50 5.5ft 11s 6s 20 25 mph 1013.5mb 71f 68f
4:50 5ft 11s 6s 20 25 mph 1013.8mb 71f 68f
3:50 5ft 12s 6s 18 20 mph 1014.1mb 71f 68f
2:50 5.5ft 11s 6s 16 18 mph 1014.9mb 71f 68f
1:50 5ft 13s 6s 18 20 mph 1015.4mb 71f 68f
12:50 5ft 11s 6s 18 20 mph 1016mb 70f 68f
11:50  -   -   -  16 18 mph 1016.2mb 71f 68f
10:50 6ft 12s 6s 16 18 mph 1016.2mb 71f 68f
9:50 6ft 11s 6s 16 18 mph 1016.3mb 70f 67f
8:50 5.5ft 12s 6s 16 20 mph 1015.9mb 70f 67f
7:50 6ft 12s 7s 13 18 mph 1015.4mb 70f 67f
6:50  -   -   -  16 20 mph 1014.8mb 70f 66f
5:50 6ft 12s 6s 18 20 mph 1014.6mb 71f 67f
4:50 5ft 12s 6s 18 20 mph 1014.5mb 71f 67f
3:50 6ft 12s 7s 16 18 mph 1014.8mb 71f 68f
2:50 6ft 12s 7s 16 20 mph 1015.1mb 71f 68f
1:50 6ft 13s 6s 16 20 mph 1015.3mb 71f 68f
12:50  -   -   -  16 20 mph 1015.3mb 71f 68f
So 09/21 11:50 6ft 13s 6s 18 22 mph 1015.1mb 71f 68f
10:50 5.5ft 12s 6s 18 22 mph 1015mb 71f 67f
9:50 5.5ft 12s 7s 18 22 mph 1014.9mb 71f 67f
8:50 5ft 13s 6s 18 22 mph 1014.7mb 71f 68f
7:50 5.5ft 12s 7s 18 25 mph 1014.4mb 71f 67f
6:50 5ft 13s 8s 16 20 mph 1014.2mb 71f 67f
5:50 4.5ft 13s 8s 18 22 mph 1014.2mb 71f 68f
4:50 3.5ft 13s 7s 11 13 mph 1014.6mb 71f 69f
3:50 3.5ft 14s 7s 11 13 mph 1014.9mb 71f 69f
2:50 3.5ft 14s 6s 13 16 mph 1015.1mb 71f 69f
1:50 4ft 14s 7s 11 13 mph 1015.5mb 71f 69f
12:50 4ft 14s 7s 13 16 mph 1015.7mb 71f 69f
11:50 4ft 15s 7s 11 13 mph 1016.2mb 71f 69f
10:50 3.5ft 9s 7s 13 16 mph 1016.4mb 71f 69f
9:50 4ft 14s 7s 9 13 mph 1016.4mb 71f 69f
8:50 3.5ft 13s 7s 9 13 mph 1015.9mb 71f 69f
7:50 3.5ft 9s 7s 9 13 mph 1015.3mb 71f 69f
6:50 4ft 13s 7s 11 13 mph 1014.6mb 71f 69f
5:50 3.5ft 14s 7s 7 11 mph 1014.3mb 71f 69f
4:50 4ft 14s 8s 13 16 mph 1014mb 71f 69f
3:50 4ft 13s 7s 9 13 mph 1014.1mb 71f 69f
2:50 3.5ft 14s 7s 11 16 mph 1014.2mb 71f 69f
1:50 4ft 14s 7s 11 13 mph 1014.4mb 71f 68f
12:50 4ft 9s 7s 11 13 mph 1014.5mb 71f 68f
Sa 09/20 11:50 3.5ft 14s 7s 9 13 mph 1014.4mb 71f 68f
10:50 4.5ft 10s 8s 9 11 mph 1014.4mb 71f 68f
9:50 4.5ft 10s 8s 9 11 mph 1014.2mb 71f 68f
8:50 3.5ft 8s 8s 11 13 mph 1013.7mb 71f 68f
7:50 4ft 14s 8s 9 11 mph 1013.2mb 71f 68f
6:50 4ft 10s 8s 9 11 mph 1013mb 71f 69f
5:50 4.5ft 10s 8s 9 11 mph 1012.9mb 72f 69f
4:50 4.5ft 14s 8s 9 11 mph 1013mb 72f 69f
3:50 4ft 14s 8s 7 9 mph 1013.2mb 72f 69f
2:50 4.5ft 9s 8s 7 9 mph 1013.5mb 72f 69f
1:50 4.5ft 14s 8s 7 9 mph 1014mb 72f 69f
12:50 4.5ft 9s 8s 4 7 mph 1014.5mb 71f 69f
11:50 4.5ft 14s 8s 7 9 mph 1014.7mb 71f 69f
10:50 5ft 11s 8s 4 7 mph 1014.7mb 71f 68f
9:50 5ft 9s 8s 7 9 mph 1014.5mb 71f 68f
8:50 4.5ft 10s 7s 4 7 mph 1014mb 70f 68f
7:50 5ft 14s 8s 7 9 mph 1013.7mb 70f 68f
6:50 5.5ft 15s 8s 7 9 mph 1013mb 70f 68f
5:50 5ft 11s 8s 9 11 mph 1012.6mb 70f 68f
4:50 5ft 10s 8s 11 13 mph 1012.2mb 70f 68f
3:50 5ft 15s 7s 11
mph
1012.3mb 70f 68f
2:50 5.5ft 10s 8s 11
mph
1012.7mb 70f 68f
1:50 5ft 10s 7s 11 16 mph 1013mb 70f 68f
12:50 6ft 11s 7s 11 16 mph 1013.1mb 70f 68f
Fr 09/19 11:50 5.5ft 11s 7s 11 13 mph 1013.2mb 71f 68f
10:50 6ft 11s 7s 13 16 mph 1012.9mb 71f 68f
9:50 6ft 11s 7s 16 20 mph 1012.5mb 71f 68f
8:50 6ft 11s 7s 16 18 mph 1012.1mb 71f 68f
7:50 6ft 10s 8s 16 18 mph 1011.6mb 71f 68f
6:50 6.5ft 11s 8s 16 18 mph 1011.2mb 71f 68f
5:50 6ft 9s 8s 13 18 mph 1011.2mb 71f 68f
4:50 6ft 11s 8s 11 16 mph 1011.4mb 71f 68f
3:50 6.5ft 10s 9s 9 11 mph 1011.9mb 71f 68f
2:50 5.5ft 10s 8s 9 11 mph 1012.3mb 71f 67f
1:50 6.5ft 11s 8s 9 11 mph 1012.6mb 71f 67f
12:50 6ft 11s 8s 9 11 mph 1013mb 71f 67f
11:50 6.5ft 11s 8s 11 13 mph 1013.5mb 70f 67f
10:50 6.5ft 12s 8s 9 11 mph 1013.5mb 70f 67f
9:50 7ft 15s 8s 11 13 mph 1013.4mb 70f 67f
8:50 6ft 13s 8s 11 16 mph 1013.2mb 70f 67f
7:50 6ft 14s 8s 11 16 mph 1013.1mb 70f 67f
6:50 6ft 13s 8s 13 16 mph 1012.7mb 70f 67f
5:50 6ft 15s 8s 13 16 mph 1012.4mb 70f 67f